createdAt,value
2018-06-25T00:00:00.107Z,0.00
2018-06-25T00:01:00.048Z,0.00
2018-06-25T00:02:00.064Z,0.00
2018-06-25T00:02:59.980Z,0.00
2018-06-25T00:03:59.960Z,0.00
2018-06-25T00:04:59.971Z,0.00
2018-06-25T00:05:59.899Z,0.00
2018-06-25T00:06:59.930Z,0.00
2018-06-25T00:08:00.793Z,0.00
2018-06-25T00:08:59.829Z,0.00
2018-06-25T00:09:59.792Z,0.00
2018-06-25T00:10:59.777Z,0.00
2018-06-25T00:11:59.837Z,0.00
2018-06-25T00:12:59.713Z,0.00
2018-06-25T00:13:59.692Z,0.00
2018-06-25T00:14:59.708Z,0.00
2018-06-25T00:15:59.641Z,0.00
2018-06-25T00:16:59.607Z,0.00
2018-06-25T00:17:59.585Z,0.00
2018-06-25T00:18:59.555Z,0.00
2018-06-25T00:19:59.563Z,0.00
2018-06-25T00:20:59.658Z,0.00
2018-06-25T00:21:59.471Z,0.00
2018-06-25T00:22:59.485Z,0.00
2018-06-25T00:23:59.421Z,0.00
2018-06-25T00:24:59.418Z,0.00
2018-06-25T00:25:59.363Z,0.00
2018-06-25T00:26:59.391Z,0.00
2018-06-25T00:27:59.314Z,0.00
2018-06-25T00:28:59.286Z,0.00
2018-06-25T00:29:59.262Z,0.00
2018-06-25T00:30:59.270Z,0.00
2018-06-25T00:31:59.203Z,0.00
2018-06-25T00:32:59.183Z,0.00
2018-06-25T00:33:59.157Z,0.00
2018-06-25T00:34:59.171Z,0.00
2018-06-25T00:35:59.107Z,0.00
2018-06-25T00:36:59.073Z,0.00
2018-06-25T00:37:59.085Z,0.00
2018-06-25T00:38:59.016Z,0.00
2018-06-25T00:39:58.991Z,0.00
2018-06-25T00:40:58.959Z,0.00
2018-06-25T00:41:58.934Z,0.00
2018-06-25T00:42:58.949Z,0.00
2018-06-25T00:43:58.900Z,0.00
2018-06-25T00:44:58.853Z,0.00
2018-06-25T00:45:58.825Z,0.00
2018-06-25T00:46:59.694Z,0.00
2018-06-25T00:47:58.818Z,0.00
2018-06-25T00:48:58.744Z,0.00
2018-06-25T00:49:58.717Z,0.00
2018-06-25T00:50:58.697Z,0.00
2018-06-25T00:51:58.663Z,0.00
2018-06-25T00:52:58.681Z,0.00
2018-06-25T00:53:58.607Z,0.00
2018-06-25T00:54:58.583Z,0.00
2018-06-25T00:55:58.561Z,0.00
2018-06-25T00:56:58.575Z,0.00
2018-06-25T00:57:58.501Z,0.00
2018-06-25T00:58:58.523Z,0.00
2018-06-25T00:59:58.446Z,0.00
2018-06-25T01:00:58.420Z,0.00
2018-06-25T01:01:58.398Z,0.00
2018-06-25T01:02:58.373Z,0.00
2018-06-25T01:03:58.383Z,0.00
2018-06-25T01:04:58.373Z,0.00
2018-06-25T01:05:58.289Z,0.00
2018-06-25T01:06:58.257Z,0.00
2018-06-25T01:07:58.231Z,0.00
2018-06-25T01:08:58.212Z,0.00
2018-06-25T01:09:58.215Z,0.00
2018-06-25T01:10:58.699Z,0.00
2018-06-25T01:11:58.125Z,0.00
2018-06-25T01:12:58.107Z,0.00
2018-06-25T01:13:58.086Z,0.00
2018-06-25T01:14:58.100Z,0.00
2018-06-25T01:15:58.016Z,0.00
2018-06-25T01:16:58.000Z,0.00
2018-06-25T01:17:57.963Z,0.00
2018-06-25T01:18:57.934Z,0.00
2018-06-25T01:19:58.065Z,0.00
2018-06-25T01:20:57.894Z,0.00
2018-06-25T01:21:57.856Z,0.00
2018-06-25T01:22:57.825Z,0.00
2018-06-25T01:23:57.802Z,0.00
2018-06-25T01:24:57.815Z,0.00
2018-06-25T01:25:57.794Z,0.00
2018-06-25T01:26:57.720Z,0.00
2018-06-25T01:27:57.690Z,0.00
2018-06-25T01:28:57.671Z,0.00
2018-06-25T01:29:57.636Z,0.00
2018-06-25T01:30:57.655Z,0.00
2018-06-25T01:31:57.585Z,0.00
2018-06-25T01:32:57.554Z,0.00
2018-06-25T01:33:57.535Z,0.00
2018-06-25T01:34:57.499Z,0.00
2018-06-25T01:35:57.518Z,0.00
2018-06-25T01:36:57.449Z,0.00
2018-06-25T01:37:57.471Z,0.00
2018-06-25T01:38:57.395Z,0.00
2018-06-25T01:39:57.366Z,0.00
2018-06-25T01:40:57.343Z,0.00
2018-06-25T01:41:57.314Z,0.00
2018-06-25T01:42:57.367Z,0.00
2018-06-25T01:43:57.260Z,0.00
2018-06-25T01:44:57.227Z,0.00
2018-06-25T01:45:57.203Z,0.00
2018-06-25T01:46:57.187Z,0.00
2018-06-25T01:47:57.199Z,0.00
2018-06-25T01:48:57.117Z,0.00
2018-06-25T01:49:57.707Z,0.00
2018-06-25T01:50:57.110Z,0.00
2018-06-25T01:51:57.039Z,0.00
2018-06-25T01:52:57.057Z,0.00
2018-06-25T01:53:57.154Z,0.00
2018-06-25T01:54:56.960Z,0.00
2018-06-25T01:55:56.940Z,0.00
2018-06-25T01:56:56.903Z,4.00
2018-06-25T01:57:56.912Z,4.00
2018-06-25T01:58:56.910Z,4.00
2018-06-25T01:59:56.822Z,4.00
2018-06-25T02:00:56.815Z,4.00
2018-06-25T02:01:56.773Z,4.00
2018-06-25T02:02:56.785Z,0.00
2018-06-25T02:03:56.712Z,4.00
2018-06-25T02:04:56.730Z,4.00
2018-06-25T02:05:56.660Z,4.00
2018-06-25T02:06:56.630Z,8.00
2018-06-25T02:07:56.626Z,4.00
2018-06-25T02:08:56.579Z,4.00
2018-06-25T02:09:56.602Z,8.00
2018-06-25T02:10:56.527Z,8.00
2018-06-25T02:11:56.495Z,8.00
2018-06-25T02:12:56.470Z,12.00
2018-06-25T02:13:56.444Z,8.00
2018-06-25T02:14:56.455Z,12.00
2018-06-25T02:15:56.386Z,12.00
2018-06-25T02:16:56.362Z,12.00
2018-06-25T02:17:56.382Z,16.00
2018-06-25T02:18:56.305Z,16.00
2018-06-25T02:19:56.284Z,20.00
2018-06-25T02:20:56.247Z,20.00
2018-06-25T02:21:56.219Z,24.00
2018-06-25T02:22:56.240Z,24.00
2018-06-25T02:23:56.167Z,28.00
2018-06-25T02:24:56.140Z,32.00
2018-06-25T02:25:56.113Z,36.00
2018-06-25T02:26:56.193Z,40.00
2018-06-25T02:27:56.059Z,40.00
2018-06-25T02:28:56.051Z,48.00
2018-06-25T02:29:56.014Z,48.00
2018-06-25T02:30:55.978Z,56.00
2018-06-25T02:31:55.994Z,64.00
2018-06-25T02:32:55.945Z,68.00
2018-06-25T02:33:55.958Z,72.00
2018-06-25T02:34:55.866Z,80.00
2018-06-25T02:35:55.848Z,84.00
2018-06-25T02:36:55.813Z,96.00
2018-06-25T02:37:55.784Z,100.00
2018-06-25T02:38:55.797Z,112.00
2018-06-25T02:39:55.812Z,124.00
2018-06-25T02:40:55.701Z,128.00
2018-06-25T02:41:55.726Z,136.00
2018-06-25T02:42:55.647Z,156.00
2018-06-25T02:43:55.625Z,176.00
2018-06-25T02:44:55.596Z,184.00
2018-06-25T02:45:55.568Z,192.00
2018-06-25T02:46:55.587Z,208.00
2018-06-25T02:47:55.511Z,216.00
2018-06-25T02:48:55.491Z,236.00
2018-06-25T02:49:55.498Z,260.00
2018-06-25T02:50:55.429Z,268.00
2018-06-25T02:51:55.402Z,284.00
2018-06-25T02:52:55.458Z,284.00
2018-06-25T02:53:55.391Z,288.00
2018-06-25T02:54:55.320Z,300.00
2018-06-25T02:55:55.301Z,308.00
2018-06-25T02:56:55.310Z,324.00
2018-06-25T02:57:55.265Z,356.00
2018-06-25T02:58:55.260Z,388.00
2018-06-25T02:59:55.241Z,412.00
2018-06-25T03:00:55.154Z,428.00
2018-06-25T03:01:55.137Z,424.00
2018-06-25T03:02:55.103Z,432.00
2018-06-25T03:03:55.113Z,452.00
2018-06-25T03:04:55.050Z,468.00
2018-06-25T03:05:55.019Z,516.00
2018-06-25T03:06:54.994Z,540.00
2018-06-25T03:07:55.817Z,560.00
2018-06-25T03:08:54.978Z,584.00
2018-06-25T03:09:54.954Z,596.00
2018-06-25T03:10:54.931Z,600.00
2018-06-25T03:11:54.853Z,612.00
2018-06-25T03:12:54.827Z,624.00
2018-06-25T03:13:54.842Z,652.00
2018-06-25T03:14:54.769Z,676.00
2018-06-25T03:15:54.787Z,716.00
2018-06-25T03:16:54.717Z,720.00
2018-06-25T03:17:54.687Z,732.00
2018-06-25T03:18:54.705Z,752.00
2018-06-25T03:19:54.636Z,780.00
2018-06-25T03:20:54.664Z,812.00
2018-06-25T03:21:54.578Z,856.00
2018-06-25T03:22:54.565Z,888.00
2018-06-25T03:23:54.530Z,924.00
2018-06-25T03:24:55.318Z,1028.00
2018-06-25T03:25:54.514Z,988.00
2018-06-25T03:26:54.461Z,1008.00
2018-06-25T03:27:54.426Z,1064.00
2018-06-25T03:28:54.396Z,1096.00
2018-06-25T03:29:55.327Z,1048.00
2018-06-25T03:30:54.373Z,1100.00
2018-06-25T03:31:54.309Z,1128.00
2018-06-25T03:32:54.334Z,1144.00
2018-06-25T03:33:54.250Z,1176.00
2018-06-25T03:34:54.238Z,1160.00
2018-06-25T03:35:54.205Z,1172.00
2018-06-25T03:36:54.818Z,1236.00
2018-06-25T03:37:54.226Z,1232.00
2018-06-25T03:38:54.119Z,1316.00
2018-06-25T03:39:54.090Z,1368.00
2018-06-25T03:40:54.065Z,1404.00
2018-06-25T03:41:54.726Z,1404.00
2018-06-25T03:42:54.047Z,1436.00
2018-06-25T03:43:54.024Z,1412.00
2018-06-25T03:44:53.954Z,1372.00
2018-06-25T03:45:53.924Z,1408.00
2018-06-25T03:46:53.900Z,1400.00
2018-06-25T03:47:54.818Z,1552.00
2018-06-25T03:48:53.915Z,1616.00
2018-06-25T03:49:53.823Z,1632.00
2018-06-25T03:50:53.789Z,1592.00
2018-06-25T03:51:53.760Z,1524.00
2018-06-25T03:52:53.743Z,1608.00
2018-06-25T03:53:53.760Z,1700.00
2018-06-25T03:54:53.681Z,1704.00
2018-06-25T03:55:53.655Z,1672.00
2018-06-25T03:56:53.629Z,1680.00
2018-06-25T03:57:53.598Z,1684.00
2018-06-25T03:58:53.620Z,1704.00
2018-06-25T03:59:53.544Z,1772.00
2018-06-25T04:00:53.569Z,1736.00
2018-06-25T04:01:53.495Z,1772.00
2018-06-25T04:02:53.469Z,1764.00
2018-06-25T04:03:53.488Z,1788.00
2018-06-25T04:04:53.414Z,1832.00
2018-06-25T04:05:53.381Z,1976.00
2018-06-25T04:06:53.353Z,1888.00
2018-06-25T04:07:56.322Z,1996.00
2018-06-25T04:08:53.347Z,2248.00
2018-06-25T04:09:53.275Z,2208.00
2018-06-25T04:10:53.289Z,2060.00
2018-06-25T04:11:53.219Z,1968.00
2018-06-25T04:12:53.190Z,2032.00
2018-06-25T04:13:53.209Z,2088.00
2018-06-25T04:14:53.138Z,2224.00
2018-06-25T04:15:53.173Z,2340.00
2018-06-25T04:16:53.091Z,2536.00
2018-06-25T04:17:53.056Z,2492.00
2018-06-25T04:18:53.025Z,2368.00
2018-06-25T04:19:53.010Z,2208.00
2018-06-25T04:20:53.015Z,2340.00
2018-06-25T04:21:52.999Z,2348.00
2018-06-25T04:22:52.919Z,2664.00
2018-06-25T04:23:52.894Z,2808.00
2018-06-25T04:24:52.865Z,2720.00
2018-06-25T04:25:52.852Z,2792.00
2018-06-25T04:26:52.857Z,3336.00
2018-06-25T04:27:52.791Z,3384.00
2018-06-25T04:28:52.765Z,3068.00
2018-06-25T04:29:52.775Z,3000.00
2018-06-25T04:30:52.708Z,3048.00
2018-06-25T04:31:52.727Z,3224.00
2018-06-25T04:32:53.326Z,3112.00
2018-06-25T04:33:52.622Z,3104.00
2018-06-25T04:34:52.600Z,3076.00
2018-06-25T04:35:52.612Z,2996.00
2018-06-25T04:36:52.549Z,3056.00
2018-06-25T04:37:52.517Z,3424.00
2018-06-25T04:38:52.485Z,3356.00
2018-06-25T04:39:52.458Z,3240.00
2018-06-25T04:40:52.476Z,3352.00
2018-06-25T04:41:52.404Z,3264.00
2018-06-25T04:42:52.379Z,3096.00
2018-06-25T04:43:52.355Z,2936.00
2018-06-25T04:44:52.354Z,3052.00
2018-06-25T04:45:52.346Z,3580.00
2018-06-25T04:46:54.237Z,3620.00
2018-06-25T04:47:52.251Z,3584.00
2018-06-25T04:48:52.229Z,3816.00
2018-06-25T04:49:52.187Z,3692.00
2018-06-25T04:50:52.161Z,3388.00
2018-06-25T04:51:52.187Z,3432.00
2018-06-25T04:52:52.108Z,3712.00
2018-06-25T04:53:52.083Z,3812.00
2018-06-25T04:54:52.060Z,3752.00
2018-06-25T04:55:52.838Z,3832.00
2018-06-25T04:56:52.043Z,4032.00
2018-06-25T04:57:51.997Z,3904.00
2018-06-25T04:58:51.957Z,3608.00
2018-06-25T04:59:51.920Z,3548.00
2018-06-25T05:00:51.970Z,3700.00
2018-06-25T05:01:51.871Z,3780.00
2018-06-25T05:02:51.883Z,3540.00
2018-06-25T05:03:51.812Z,3452.00
2018-06-25T05:04:51.782Z,3352.00
2018-06-25T05:05:51.757Z,3296.00
2018-06-25T05:06:51.734Z,3300.00
2018-06-25T05:07:51.772Z,3408.00
2018-06-25T05:08:51.691Z,3532.00
2018-06-25T05:09:51.651Z,3600.00
2018-06-25T05:10:51.627Z,3624.00
2018-06-25T05:11:51.597Z,3640.00
2018-06-25T05:12:51.613Z,3716.00
2018-06-25T05:13:51.589Z,3928.00
2018-06-25T05:14:51.523Z,4120.00
2018-06-25T05:15:51.491Z,4088.00
2018-06-25T05:16:51.480Z,4244.00
2018-06-25T05:17:51.440Z,4552.00
2018-06-25T05:18:51.462Z,4548.00
2018-06-25T05:19:51.389Z,4656.00
2018-06-25T05:20:51.363Z,4536.00
2018-06-25T05:21:51.333Z,4596.00
2018-06-25T05:22:51.368Z,4608.00
2018-06-25T05:23:51.281Z,4404.00
2018-06-25T05:24:51.295Z,4228.00
2018-06-25T05:25:51.228Z,4452.00
2018-06-25T05:26:51.210Z,4816.00
2018-06-25T05:27:51.182Z,4712.00
2018-06-25T05:28:51.146Z,4688.00
2018-06-25T05:29:51.182Z,4804.00
2018-06-25T05:30:51.095Z,4812.00
2018-06-25T05:31:51.066Z,4904.00
2018-06-25T05:32:51.044Z,4936.00
2018-06-25T05:33:51.017Z,5032.00
2018-06-25T05:34:51.033Z,4952.00
2018-06-25T05:35:50.964Z,4880.00
2018-06-25T05:36:50.979Z,5016.00
2018-06-25T05:37:50.909Z,4892.00
2018-06-25T05:38:50.882Z,4932.00
2018-06-25T05:39:50.859Z,5232.00
2018-06-25T05:40:50.867Z,5048.00
2018-06-25T05:41:50.803Z,4668.00
2018-06-25T05:42:50.822Z,4556.00
2018-06-25T05:43:50.754Z,5052.00
2018-06-25T05:44:50.749Z,5648.00
2018-06-25T05:45:50.697Z,6172.00
2018-06-25T05:46:50.676Z,6608.00
2018-06-25T05:47:50.690Z,6412.00
2018-06-25T05:48:50.624Z,6096.00
2018-06-25T05:49:50.594Z,5732.00
2018-06-25T05:50:50.568Z,6052.00
2018-06-25T05:51:50.593Z,6224.00
2018-06-25T05:52:50.533Z,6808.00
2018-06-25T05:53:50.527Z,8344.00
2018-06-25T05:54:50.468Z,9416.00
2018-06-25T05:55:50.493Z,8612.00
2018-06-25T05:56:50.414Z,7760.00
2018-06-25T05:57:50.412Z,6912.00
2018-06-25T05:58:50.387Z,6644.00
2018-06-25T05:59:50.333Z,7080.00
2018-06-25T06:00:50.356Z,6920.00
2018-06-25T06:01:50.282Z,6680.00
2018-06-25T06:02:50.258Z,6384.00
2018-06-25T06:03:50.235Z,6464.00
2018-06-25T06:04:50.211Z,6672.00
2018-06-25T06:05:50.224Z,7116.00
2018-06-25T06:06:50.153Z,6804.00
2018-06-25T06:07:50.128Z,7348.00
2018-06-25T06:08:50.101Z,8560.00
2018-06-25T06:09:50.076Z,8424.00
2018-06-25T06:10:50.098Z,7588.00
2018-06-25T06:11:50.072Z,7428.00
2018-06-25T06:12:50.002Z,6812.00
2018-06-25T06:13:50.044Z,6516.00
2018-06-25T06:14:49.955Z,7108.00
2018-06-25T06:15:50.036Z,8196.00
2018-06-25T06:16:49.944Z,10228.00
2018-06-25T06:17:49.922Z,12024.00
2018-06-25T06:18:49.853Z,10056.00
2018-06-25T06:19:49.841Z,10132.00
2018-06-25T06:20:49.803Z,10044.00
2018-06-25T06:21:49.777Z,8144.00
2018-06-25T06:22:49.795Z,7584.00
2018-06-25T06:23:49.743Z,6620.00
2018-06-25T06:24:49.702Z,6156.00
2018-06-25T06:25:49.676Z,6448.00
2018-06-25T06:26:49.658Z,6420.00
2018-06-25T06:27:49.681Z,6148.00
2018-06-25T06:28:49.603Z,6268.00
2018-06-25T06:29:49.577Z,7052.00
2018-06-25T06:30:49.553Z,7220.00
2018-06-25T06:31:49.529Z,7296.00
2018-06-25T06:32:49.549Z,6828.00
2018-06-25T06:33:49.476Z,6372.00
2018-06-25T06:34:49.449Z,8240.00
2018-06-25T06:35:49.472Z,9092.00
2018-06-25T06:36:49.399Z,8732.00
2018-06-25T06:37:49.420Z,7616.00
2018-06-25T06:38:49.347Z,8508.00
2018-06-25T06:39:49.330Z,9788.00
2018-06-25T06:40:49.307Z,9436.00
2018-06-25T06:41:49.283Z,10136.00
2018-06-25T06:42:49.304Z,10848.00
2018-06-25T06:43:49.225Z,11440.00
2018-06-25T06:44:49.196Z,9712.00
2018-06-25T06:45:49.175Z,9256.00
2018-06-25T06:46:49.149Z,8884.00
2018-06-25T06:47:49.188Z,9284.00
2018-06-25T06:48:49.098Z,7944.00
2018-06-25T06:49:49.076Z,6968.00
2018-06-25T06:50:49.051Z,6784.00
2018-06-25T06:51:49.051Z,6852.00
2018-06-25T06:52:49.041Z,7196.00
2018-06-25T06:53:49.028Z,7032.00
2018-06-25T06:54:48.994Z,7212.00
2018-06-25T06:55:48.925Z,8200.00
2018-06-25T06:56:48.902Z,10336.00
2018-06-25T06:57:48.899Z,11376.00
2018-06-25T06:58:48.850Z,9980.00
2018-06-25T06:59:48.871Z,9620.00
2018-06-25T07:00:48.800Z,9868.00
2018-06-25T07:01:48.781Z,10324.00
2018-06-25T07:02:48.756Z,11228.00
2018-06-25T07:03:48.729Z,12004.00
2018-06-25T07:04:48.804Z,9696.00
2018-06-25T07:05:48.678Z,8768.00
2018-06-25T07:06:48.653Z,9272.00
2018-06-25T07:07:48.632Z,8156.00
2018-06-25T07:08:48.602Z,7080.00
2018-06-25T07:09:48.621Z,7008.00
2018-06-25T07:10:48.602Z,7488.00
2018-06-25T07:11:48.548Z,7964.00
2018-06-25T07:12:48.505Z,7784.00
2018-06-25T07:13:48.479Z,7452.00
2018-06-25T07:14:48.499Z,7320.00
2018-06-25T07:15:48.430Z,7400.00
2018-06-25T07:16:48.452Z,7392.00
2018-06-25T07:17:48.380Z,6732.00
2018-06-25T07:18:48.369Z,6392.00
2018-06-25T07:19:48.374Z,6328.00
2018-06-25T07:20:48.341Z,6412.00
2018-06-25T07:21:48.287Z,6200.00
2018-06-25T07:22:48.261Z,6536.00
2018-06-25T07:23:48.232Z,6916.00
2018-06-25T07:24:48.254Z,6744.00
2018-06-25T07:25:48.181Z,6920.00
2018-06-25T07:26:48.156Z,7784.00
2018-06-25T07:27:48.131Z,9692.00
2018-06-25T07:28:48.183Z,9416.00
2018-06-25T07:29:48.124Z,9192.00
2018-06-25T07:30:48.057Z,7920.00
2018-06-25T07:31:48.036Z,8140.00
2018-06-25T07:32:48.003Z,7788.00
2018-06-25T07:33:47.981Z,7052.00
2018-06-25T07:34:47.999Z,7376.00
2018-06-25T07:35:47.927Z,7152.00
2018-06-25T07:36:47.916Z,7620.00
2018-06-25T07:37:47.876Z,8024.00
2018-06-25T07:38:47.851Z,7816.00
2018-06-25T07:39:47.883Z,7868.00
2018-06-25T07:40:47.803Z,8032.00
2018-06-25T07:41:47.800Z,8212.00
2018-06-25T07:42:47.752Z,7696.00
2018-06-25T07:43:47.728Z,7100.00
2018-06-25T07:44:47.767Z,6744.00
2018-06-25T07:45:47.677Z,6832.00
2018-06-25T07:46:47.649Z,7588.00
2018-06-25T07:47:47.627Z,8320.00
2018-06-25T07:48:47.656Z,8392.00
2018-06-25T07:49:47.594Z,7540.00
2018-06-25T07:50:47.558Z,7124.00
2018-06-25T07:51:47.537Z,7172.00
2018-06-25T07:52:47.504Z,7880.00
2018-06-25T07:53:47.524Z,10292.00
2018-06-25T07:54:47.452Z,12780.00
2018-06-25T07:55:47.482Z,14348.00
2018-06-25T07:56:47.404Z,14404.00
2018-06-25T07:57:47.379Z,12836.00
2018-06-25T07:58:47.356Z,11424.00
2018-06-25T07:59:47.328Z,9940.00
2018-06-25T08:00:47.362Z,9780.00
2018-06-25T08:01:47.281Z,9708.00
2018-06-25T08:02:47.267Z,9060.00
2018-06-25T08:03:47.233Z,8952.00
2018-06-25T08:04:47.206Z,8592.00
2018-06-25T08:05:47.232Z,8132.00
2018-06-25T08:06:47.160Z,7760.00
2018-06-25T08:07:47.136Z,7468.00
2018-06-25T08:08:47.167Z,7324.00
2018-06-25T08:09:47.125Z,7396.00
2018-06-25T08:10:47.064Z,7496.00
2018-06-25T08:11:47.037Z,8052.00
2018-06-25T08:12:47.009Z,8500.00
2018-06-25T08:13:47.047Z,8464.00
2018-06-25T08:14:47.006Z,8836.00
2018-06-25T08:15:46.983Z,9200.00
2018-06-25T08:16:46.997Z,8928.00
2018-06-25T08:17:46.942Z,8636.00
2018-06-25T08:18:46.866Z,8356.00
2018-06-25T08:19:46.841Z,8172.00
2018-06-25T08:20:46.819Z,8112.00
2018-06-25T08:21:46.789Z,8432.00
2018-06-25T08:22:46.812Z,8992.00
2018-06-25T08:23:46.754Z,10348.00
2018-06-25T08:24:46.716Z,12888.00
2018-06-25T08:25:46.739Z,14748.00
2018-06-25T08:26:46.683Z,16576.00
2018-06-25T08:27:46.644Z,17952.00
2018-06-25T08:28:46.697Z,19008.00
2018-06-25T08:29:46.621Z,17568.00
2018-06-25T08:30:46.575Z,15432.00
2018-06-25T08:31:46.551Z,15080.00
2018-06-25T08:32:46.566Z,15556.00
2018-06-25T08:33:46.574Z,15372.00
2018-06-25T08:34:46.474Z,15452.00
2018-06-25T08:35:46.494Z,17504.00
2018-06-25T08:36:46.428Z,18464.00
2018-06-25T08:37:46.400Z,17344.00
2018-06-25T08:38:46.378Z,16992.00
2018-06-25T08:39:46.402Z,17088.00
2018-06-25T08:40:46.394Z,16608.00
2018-06-25T08:41:46.321Z,17472.00
2018-06-25T08:42:46.289Z,19552.00
2018-06-25T08:43:46.263Z,19296.00
2018-06-25T08:44:46.239Z,18368.00
2018-06-25T08:45:46.326Z,18240.00
2018-06-25T08:46:46.204Z,18112.00
2018-06-25T08:47:46.188Z,18144.00
2018-06-25T08:48:46.148Z,17600.00
2018-06-25T08:49:46.131Z,17824.00
2018-06-25T08:50:46.152Z,19424.00
2018-06-25T08:51:46.227Z,19776.00
2018-06-25T08:52:46.066Z,18464.00
2018-06-25T08:53:46.035Z,18272.00
2018-06-25T08:54:46.013Z,20416.00
2018-06-25T08:55:46.032Z,19680.00
2018-06-25T08:56:46.032Z,20416.00
2018-06-25T08:57:45.944Z,21152.00
2018-06-25T08:58:45.940Z,18944.00
2018-06-25T08:59:45.904Z,16928.00
2018-06-25T09:00:45.928Z,19936.00
2018-06-25T09:01:45.857Z,23584.00
2018-06-25T09:02:45.900Z,25376.00
2018-06-25T09:03:45.814Z,25760.00
2018-06-25T09:04:45.801Z,25088.00
2018-06-25T09:05:45.773Z,25440.00
2018-06-25T09:06:45.748Z,25728.00
2018-06-25T09:07:45.783Z,26208.00
2018-06-25T09:08:45.712Z,24160.00
2018-06-25T09:09:45.744Z,23712.00
2018-06-25T09:10:45.667Z,23808.00
2018-06-25T09:11:45.681Z,23712.00
2018-06-25T09:12:45.622Z,23968.00
2018-06-25T09:13:45.657Z,23968.00
2018-06-25T09:14:45.591Z,24672.00
2018-06-25T09:15:45.559Z,24928.00
2018-06-25T09:16:45.540Z,23616.00
2018-06-25T09:17:45.519Z,22976.00
2018-06-25T09:18:45.568Z,23424.00
2018-06-25T09:19:45.477Z,23616.00
2018-06-25T09:20:45.456Z,22592.00
2018-06-25T09:21:45.438Z,23296.00
2018-06-25T09:22:45.415Z,22944.00
2018-06-25T09:23:45.439Z,20512.00
2018-06-25T09:24:45.421Z,20032.00
2018-06-25T09:25:45.352Z,21664.00
2018-06-25T09:26:45.381Z,23872.00
2018-06-25T09:27:45.989Z,24064.00
2018-06-25T09:28:45.294Z,23616.00
2018-06-25T09:29:45.316Z,23136.00
2018-06-25T09:30:45.251Z,23360.00
2018-06-25T09:31:45.231Z,21248.00
2018-06-25T09:32:45.211Z,19008.00
2018-06-25T09:33:45.245Z,19936.00
2018-06-25T09:34:45.172Z,21120.00
2018-06-25T09:35:45.224Z,20704.00
2018-06-25T09:36:45.173Z,17952.00
2018-06-25T09:37:45.113Z,16180.00
2018-06-25T09:38:45.901Z,14552.00
2018-06-25T09:39:45.069Z,12356.00
2018-06-25T09:40:45.061Z,11048.00
2018-06-25T09:41:45.330Z,10224.00
2018-06-25T09:42:45.008Z,9700.00
2018-06-25T09:43:44.985Z,10064.00
2018-06-25T09:44:44.976Z,9612.00
2018-06-25T09:45:44.986Z,10436.00
2018-06-25T09:46:44.930Z,13116.00
2018-06-25T09:47:44.904Z,15720.00
2018-06-25T09:48:44.957Z,18336.00
2018-06-25T09:49:44.903Z,20480.00
2018-06-25T09:50:44.840Z,21824.00
2018-06-25T09:51:44.819Z,21184.00
2018-06-25T09:52:44.797Z,20192.00
2018-06-25T09:53:44.830Z,21344.00
2018-06-25T09:54:44.782Z,22720.00
2018-06-25T09:55:44.733Z,23296.00
2018-06-25T09:56:44.711Z,22240.00
2018-06-25T09:57:44.695Z,22624.00
2018-06-25T09:58:44.745Z,23264.00
2018-06-25T09:59:44.654Z,22656.00
2018-06-25T10:00:44.626Z,21952.00
2018-06-25T10:01:44.608Z,23008.00
2018-06-25T10:02:44.586Z,24896.00
2018-06-25T10:03:44.606Z,25184.00
2018-06-25T10:04:44.546Z,23104.00
2018-06-25T10:05:44.527Z,20032.00
2018-06-25T10:06:44.551Z,18816.00
2018-06-25T10:07:44.487Z,19936.00
2018-06-25T10:08:44.467Z,21664.00
2018-06-25T10:09:44.442Z,21632.00
2018-06-25T10:10:44.469Z,18784.00
2018-06-25T10:11:44.403Z,16736.00
2018-06-25T10:12:44.381Z,16208.00
2018-06-25T10:13:44.362Z,17280.00
2018-06-25T10:14:44.399Z,18112.00
2018-06-25T10:15:44.329Z,18272.00
2018-06-25T10:16:44.303Z,17376.00
2018-06-25T10:17:44.281Z,15996.00
2018-06-25T10:18:44.280Z,14988.00
2018-06-25T10:19:44.284Z,14216.00
2018-06-25T10:20:44.223Z,14124.00
2018-06-25T10:21:44.206Z,14224.00
2018-06-25T10:22:44.192Z,14596.00
2018-06-25T10:23:44.160Z,16096.00
2018-06-25T10:24:44.199Z,16108.00
2018-06-25T10:25:44.122Z,15260.00
2018-06-25T10:26:44.099Z,14744.00
2018-06-25T10:27:44.090Z,13796.00
2018-06-25T10:28:44.085Z,12288.00
2018-06-25T10:29:44.087Z,11868.00
2018-06-25T10:30:44.019Z,12156.00
2018-06-25T10:31:44.005Z,12600.00
2018-06-25T10:32:43.978Z,13144.00
2018-06-25T10:33:44.022Z,13364.00
2018-06-25T10:34:43.958Z,13052.00
2018-06-25T10:35:43.913Z,13808.00
2018-06-25T10:36:43.895Z,14508.00
2018-06-25T10:37:43.881Z,16392.00
2018-06-25T10:38:43.901Z,19264.00
2018-06-25T10:39:43.878Z,20288.00
2018-06-25T10:40:43.814Z,20448.00
2018-06-25T10:41:43.792Z,19264.00
2018-06-25T10:42:43.886Z,17856.00
2018-06-25T10:43:43.753Z,17824.00
2018-06-25T10:44:43.786Z,17504.00
2018-06-25T10:45:43.719Z,16316.00
2018-06-25T10:46:43.693Z,15544.00
2018-06-25T10:47:43.670Z,15644.00
2018-06-25T10:48:43.652Z,17024.00
2018-06-25T10:49:43.680Z,17888.00
2018-06-25T10:50:43.616Z,18176.00
2018-06-25T10:51:43.640Z,17664.00
2018-06-25T10:52:43.572Z,17216.00
2018-06-25T10:53:43.553Z,16704.00
2018-06-25T10:54:43.537Z,15988.00
2018-06-25T10:55:43.552Z,16640.00
2018-06-25T10:56:43.494Z,17184.00
2018-06-25T10:57:43.480Z,17440.00
2018-06-25T10:58:43.479Z,18272.00
2018-06-25T10:59:43.541Z,19520.00
2018-06-25T11:00:43.461Z,20576.00
2018-06-25T11:01:43.446Z,21376.00
2018-06-25T11:02:43.408Z,21440.00
2018-06-25T11:03:43.379Z,22624.00
2018-06-25T11:04:43.343Z,23392.00
2018-06-25T11:05:43.326Z,23296.00
2018-06-25T11:06:43.350Z,22752.00
2018-06-25T11:07:43.417Z,21504.00
2018-06-25T11:08:43.308Z,19200.00
2018-06-25T11:09:43.257Z,17728.00
2018-06-25T11:10:43.228Z,15376.00
2018-06-25T11:11:43.275Z,12972.00
2018-06-25T11:12:43.236Z,11600.00
2018-06-25T11:13:43.183Z,12124.00
2018-06-25T11:14:43.153Z,14280.00
2018-06-25T11:15:43.146Z,15552.00
2018-06-25T11:16:43.164Z,17312.00
2018-06-25T11:17:43.103Z,16328.00
2018-06-25T11:18:43.090Z,15844.00
2018-06-25T11:19:43.066Z,17088.00
2018-06-25T11:20:43.084Z,15808.00
2018-06-25T11:21:43.020Z,13060.00
2018-06-25T11:22:43.007Z,13004.00
2018-06-25T11:23:43.008Z,11676.00
2018-06-25T11:24:42.966Z,9868.00
2018-06-25T11:25:42.999Z,10892.00
2018-06-25T11:26:43.002Z,12552.00
2018-06-25T11:27:42.953Z,14152.00
2018-06-25T11:28:42.922Z,15132.00
2018-06-25T11:29:42.867Z,14544.00
2018-06-25T11:30:42.904Z,12516.00
2018-06-25T11:31:42.833Z,12072.00
2018-06-25T11:32:42.808Z,12156.00
2018-06-25T11:33:42.787Z,13660.00
2018-06-25T11:34:42.776Z,15204.00
2018-06-25T11:35:42.815Z,17920.00
2018-06-25T11:36:42.734Z,21280.00
2018-06-25T11:37:42.720Z,22752.00
2018-06-25T11:38:42.706Z,22528.00
2018-06-25T11:39:42.672Z,22016.00
2018-06-25T11:40:42.699Z,21536.00
2018-06-25T11:41:42.641Z,22240.00
2018-06-25T11:42:42.616Z,22080.00
2018-06-25T11:43:42.611Z,20608.00
2018-06-25T11:44:42.640Z,19040.00
2018-06-25T11:45:42.557Z,17664.00
2018-06-25T11:46:42.537Z,16184.00
2018-06-25T11:47:42.521Z,15440.00
2018-06-25T11:48:42.498Z,16008.00
2018-06-25T11:49:42.519Z,16864.00
2018-06-25T11:50:42.513Z,18176.00
2018-06-25T11:51:42.525Z,19392.00
2018-06-25T11:52:42.422Z,20608.00
2018-06-25T11:53:42.402Z,21280.00
2018-06-25T11:54:42.384Z,21856.00
2018-06-25T11:55:42.434Z,22848.00
2018-06-25T11:56:42.345Z,23584.00
2018-06-25T11:57:42.329Z,23552.00
2018-06-25T11:58:42.308Z,22432.00
2018-06-25T11:59:42.301Z,21248.00
2018-06-25T12:00:42.317Z,19712.00
2018-06-25T12:01:42.322Z,18688.00
2018-06-25T12:02:42.513Z,19808.00
2018-06-25T12:03:42.222Z,21216.00
2018-06-25T12:04:42.197Z,19808.00
2018-06-25T12:05:42.188Z,17760.00
2018-06-25T12:06:42.208Z,18624.00
2018-06-25T12:07:42.143Z,19840.00
2018-06-25T12:08:42.125Z,19392.00
2018-06-25T12:09:42.118Z,19936.00
2018-06-25T12:10:42.250Z,20192.00
2018-06-25T12:11:42.129Z,20064.00
2018-06-25T12:12:42.053Z,21216.00